Terminal Aerodrome Forecast
Issued by NWS

Home | Current Version | Previous Version | Text Only | Print | Product List | Glossary On
Versions: 1 2 3 4 5 6 7 8 9 10 11 12 13 14 15 16 17 18 19 20
000
FTUS44 KOHX 250800 AAB
TAFCKV
TAF AMD
KCKV 250857Z 2509/2606 00000KT 4SM BR SCT045
      TEMPO 2509/2511 1SM BR
     FM251200 22005KT P6SM SCT040
     FM252000 32004KT P6SM SKC=

USA.gov is the U.S. government's official web portal to all federal, state and local government web resources and services.